sensor_id;sensor_type;location;lat;lon;timestamp;pressure;altitude;pressure_sealevel;temperature;humidity
46303;BME280;32029;51.358;5.628;2024-02-04T00:01:19;102107.53;;;11.60;100.00
46303;BME280;32029;51.358;5.628;2024-02-04T00:03:48;102119.41;;;11.61;100.00
46303;BME280;32029;51.358;5.628;2024-02-04T00:06:15;102095.97;;;11.48;100.00
46303;BME280;32029;51.358;5.628;2024-02-04T00:08:43;102099.25;;;11.52;100.00
46303;BME280;32029;51.358;5.628;2024-02-04T00:11:12;102100.44;;;11.49;100.00
46303;BME280;32029;51.358;5.628;2024-02-04T00:13:39;102106.78;;;11.50;100.00
46303;BME280;32029;51.358;5.628;2024-02-04T00:16:07;102087.50;;;11.42;100.00
46303;BME280;32029;51.358;5.628;2024-02-04T00:18:34;102078.03;;;11.36;100.00
46303;BME280;32029;51.358;5.628;2024-02-04T00:21:01;102100.59;;;11.48;100.00
46303;BME280;32029;51.358;5.628;2024-02-04T00:23:28;102110.25;;;11.52;100.00
46303;BME280;32029;51.358;5.628;2024-02-04T00:25:58;102111.41;;;11.49;100.00
46303;BME280;32029;51.358;5.628;2024-02-04T00:28:25;102105.06;;;11.49;100.00
46303;BME280;32029;51.358;5.628;2024-02-04T00:30:54;102113.31;;;11.49;100.00
46303;BME280;32029;51.358;5.628;2024-02-04T00:33:24;102112.78;;;11.45;100.00
46303;BME280;32029;51.358;5.628;2024-02-04T00:35:52;102099.53;;;11.41;100.00
46303;BME280;32029;51.358;5.628;2024-02-04T00:38:19;102107.13;;;11.47;100.00
46303;BME280;32029;51.358;5.628;2024-02-04T00:40:47;102120.69;;;11.48;100.00
46303;BME280;32029;51.358;5.628;2024-02-04T00:43:15;102073.91;;;11.14;100.00
46303;BME280;32029;51.358;5.628;2024-02-04T00:45:42;102082.63;;;11.27;100.00
46303;BME280;32029;51.358;5.628;2024-02-04T00:48:15;102016.56;;;10.85;100.00
46303;BME280;32029;51.358;5.628;2024-02-04T00:50:42;102035.19;;;10.99;100.00
46303;BME280;32029;51.358;5.628;2024-02-04T00:53:09;102123.28;;;11.50;100.00
46303;BME280;32029;51.358;5.628;2024-02-04T00:55:36;102090.19;;;11.34;100.00
46303;BME280;32029;51.358;5.628;2024-02-04T00:58:03;102121.25;;;11.52;100.00
46303;BME280;32029;51.358;5.628;2024-02-04T01:00:30;102130.53;;;11.51;100.00
46303;BME280;32029;51.358;5.628;2024-02-04T01:02:58;102140.13;;;11.47;100.00
46303;BME280;32029;51.358;5.628;2024-02-04T01:05:25;102113.56;;;11.38;100.00
46303;BME280;32029;51.358;5.628;2024-02-04T01:07:52;102112.94;;;11.44;100.00
46303;BME280;32029;51.358;5.628;2024-02-04T01:10:24;102126.75;;;11.52;100.00
46303;BME280;32029;51.358;5.628;2024-02-04T01:12:52;102123.81;;;11.53;100.00
46303;BME280;32029;51.358;5.628;2024-02-04T01:15:19;102090.06;;;11.35;100.00
46303;BME280;32029;51.358;5.628;2024-02-04T01:17:46;102100.06;;;11.44;100.00
46303;BME280;32029;51.358;5.628;2024-02-04T01:20:14;102103.03;;;11.51;100.00
46303;BME280;32029;51.358;5.628;2024-02-04T01:22:42;102090.47;;;11.48;100.00
46303;BME280;32029;51.358;5.628;2024-02-04T01:25:09;102087.88;;;11.47;100.00
46303;BME280;32029;51.358;5.628;2024-02-04T01:27:36;102093.75;;;11.52;100.00
46303;BME280;32029;51.358;5.628;2024-02-04T01:30:04;102082.75;;;11.52;100.00
46303;BME280;32029;51.358;5.628;2024-02-04T01:32:32;102046.53;;;11.31;100.00
46303;BME280;32029;51.358;5.628;2024-02-04T01:35:00;102080.72;;;11.62;100.00
46303;BME280;32029;51.358;5.628;2024-02-04T01:37:28;102036.63;;;11.38;100.00
46303;BME280;32029;51.358;5.628;2024-02-04T01:39:55;102087.66;;;11.66;100.00
46303;BME280;32029;51.358;5.628;2024-02-04T01:42:22;102071.84;;;11.68;100.00
46303;BME280;32029;51.358;5.628;2024-02-04T01:44:49;102069.38;;;11.57;100.00
46303;BME280;32029;51.358;5.628;2024-02-04T01:47:16;102014.91;;;11.26;100.00
46303;BME280;32029;51.358;5.628;2024-02-04T01:49:44;102013.25;;;11.34;100.00
46303;BME280;32029;51.358;5.628;2024-02-04T01:52:12;102061.84;;;11.59;100.00
46303;BME280;32029;51.358;5.628;2024-02-04T01:54:41;102076.16;;;11.71;100.00
46303;BME280;32029;51.358;5.628;2024-02-04T01:57:10;102100.69;;;11.90;100.00
46303;BME280;32029;51.358;5.628;2024-02-04T01:59:39;102092.25;;;11.92;100.00
46303;BME280;32029;51.358;5.628;2024-02-04T02:02:07;102072.59;;;11.78;100.00
46303;BME280;32029;51.358;5.628;2024-02-04T02:04:34;102104.47;;;11.97;100.00
46303;BME280;32029;51.358;5.628;2024-02-04T02:07:03;102095.88;;;11.92;100.00
46303;BME280;32029;51.358;5.628;2024-02-04T02:09:36;102112.91;;;11.96;100.00
46303;BME280;32029;51.358;5.628;2024-02-04T02:12:13;102114.28;;;12.00;100.00
46303;BME280;32029;51.358;5.628;2024-02-04T02:14:46;102111.53;;;12.00;100.00
46303;BME280;32029;51.358;5.628;2024-02-04T02:17:20;102119.97;;;11.98;100.00
46303;BME280;32029;51.358;5.628;2024-02-04T02:22:48;102046.84;;;11.53;100.00
46303;BME280;32029;51.358;5.628;2024-02-04T02:25:19;102083.91;;;11.75;100.00
46303;BME280;32029;51.358;5.628;2024-02-04T02:27:49;102091.38;;;11.83;100.00
46303;BME280;32029;51.358;5.628;2024-02-04T02:30:19;102109.13;;;11.97;100.00
46303;BME280;32029;51.358;5.628;2024-02-04T02:32:48;102072.59;;;11.78;100.00
46303;BME280;32029;51.358;5.628;2024-02-04T02:35:16;102092.97;;;11.94;100.00
46303;BME280;32029;51.358;5.628;2024-02-04T02:40:34;102075.56;;;11.93;100.00
46303;BME280;32029;51.358;5.628;2024-02-04T02:43:10;102017.50;;;11.62;100.00
46303;BME280;32029;51.358;5.628;2024-02-04T02:45:41;102086.78;;;12.00;100.00
46303;BME280;32029;51.358;5.628;2024-02-04T02:48:10;102115.03;;;12.10;100.00
46303;BME280;32029;51.358;5.628;2024-02-04T02:50:38;102104.34;;;12.07;100.00
46303;BME280;32029;51.358;5.628;2024-02-04T02:53:06;102114.66;;;12.05;100.00
46303;BME280;32029;51.358;5.628;2024-02-04T02:58:10;101973.91;;;11.33;100.00
46303;BME280;32029;51.358;5.628;2024-02-04T03:00:37;102106.06;;;12.08;100.00
46303;BME280;32029;51.358;5.628;2024-02-04T03:03:05;102098.16;;;12.05;100.00
46303;BME280;32029;51.358;5.628;2024-02-04T03:10:46;102004.22;;;11.49;100.00
46303;BME280;32029;51.358;5.628;2024-02-04T03:13:14;102094.53;;;12.05;100.00
46303;BME280;32029;51.358;5.628;2024-02-04T03:15:43;102006.16;;;11.57;100.00
46303;BME280;32029;51.358;5.628;2024-02-04T03:18:11;102065.94;;;11.89;100.00
46303;BME280;32029;51.358;5.628;2024-02-04T03:20:39;102083.34;;;11.98;100.00
46303;BME280;32029;51.358;5.628;2024-02-04T03:23:06;102104.03;;;12.10;100.00
46303;BME280;32029;51.358;5.628;2024-02-04T03:25:34;102070.28;;;12.00;100.00
46303;BME280;32029;51.358;5.628;2024-02-04T03:28:01;102089.88;;;12.05;100.00
46303;BME280;32029;51.358;5.628;2024-02-04T03:30:29;102102.97;;;12.03;100.00
46303;BME280;32029;51.358;5.628;2024-02-04T03:32:58;102077.31;;;11.94;100.00
46303;BME280;32029;51.358;5.628;2024-02-04T03:35:25;102055.72;;;11.82;100.00
46303;BME280;32029;51.358;5.628;2024-02-04T03:37:53;102090.78;;;12.06;100.00
46303;BME280;32029;51.358;5.628;2024-02-04T03:40:24;102037.31;;;11.74;100.00
46303;BME280;32029;51.358;5.628;2024-02-04T03:42:51;102035.81;;;11.80;100.00
46303;BME280;32029;51.358;5.628;2024-02-04T03:45:21;102079.41;;;12.00;100.00
46303;BME280;32029;51.358;5.628;2024-02-04T03:47:48;102086.44;;;11.95;100.00
46303;BME280;32029;51.358;5.628;2024-02-04T03:50:16;102081.97;;;11.94;100.00
46303;BME280;32029;51.358;5.628;2024-02-04T03:52:44;102062.13;;;11.82;100.00
46303;BME280;32029;51.358;5.628;2024-02-04T03:55:12;102084.34;;;11.89;100.00
46303;BME280;32029;51.358;5.628;2024-02-04T03:57:40;102080.91;;;11.87;100.00
46303;BME280;32029;51.358;5.628;2024-02-04T04:00:09;102081.50;;;11.81;100.00
46303;BME280;32029;51.358;5.628;2024-02-04T04:02:36;102059.16;;;11.75;100.00
46303;BME280;32029;51.358;5.628;2024-02-04T04:05:05;102093.28;;;11.91;100.00
46303;BME280;32029;51.358;5.628;2024-02-04T04:07:43;102090.38;;;11.92;100.00
46303;BME280;32029;51.358;5.628;2024-02-04T04:10:12;102081.97;;;11.94;100.00
46303;BME280;32029;51.358;5.628;2024-02-04T04:12:45;102094.50;;;11.96;100.00
46303;BME280;32029;51.358;5.628;2024-02-04T04:15:17;102087.13;;;11.97;100.00
46303;BME280;32029;51.358;5.628;2024-02-04T04:17:49;102063.38;;;11.88;100.00
46303;BME280;32029;51.358;5.628;2024-02-04T04:20:18;102090.25;;;12.02;100.00
46303;BME280;32029;51.358;5.628;2024-02-04T04:22:46;102086.47;;;12.03;100.00
46303;BME280;32029;51.358;5.628;2024-02-04T04:25:16;102060.22;;;11.83;100.00
46303;BME280;32029;51.358;5.628;2024-02-04T04:27:48;102098.69;;;12.09;100.00
46303;BME280;32029;51.358;5.628;2024-02-04T04:30:25;102065.88;;;11.81;100.00
46303;BME280;32029;51.358;5.628;2024-02-04T04:32:54;102082.13;;;11.92;100.00
46303;BME280;32029;51.358;5.628;2024-02-04T04:35:22;102089.22;;;12.03;100.00
46303;BME280;32029;51.358;5.628;2024-02-04T04:37:57;102065.47;;;11.94;100.00
46303;BME280;32029;51.358;5.628;2024-02-04T04:40:41;102068.91;;;12.04;100.00
46303;BME280;32029;51.358;5.628;2024-02-04T04:43:09;102031.88;;;11.82;100.00
46303;BME280;32029;51.358;5.628;2024-02-04T04:45:37;102069.97;;;12.11;100.00
46303;BME280;32029;51.358;5.628;2024-02-04T04:48:05;102037.59;;;11.97;100.00
46303;BME280;32029;51.358;5.628;2024-02-04T04:50:35;102033.84;;;11.98;100.00
46303;BME280;32029;51.358;5.628;2024-02-04T04:53:02;102044.72;;;12.16;100.00
46303;BME280;32029;51.358;5.628;2024-02-04T04:55:30;102035.59;;;12.15;100.00
46303;BME280;32029;51.358;5.628;2024-02-04T04:57:59;101996.53;;;11.95;100.00
46303;BME280;32029;51.358;5.628;2024-02-04T05:00:26;102018.56;;;12.12;100.00
46303;BME280;32029;51.358;5.628;2024-02-04T05:02:53;102016.97;;;12.01;100.00
46303;BME280;32029;51.358;5.628;2024-02-04T05:05:21;102035.56;;;11.99;100.00
46303;BME280;32029;51.358;5.628;2024-02-04T05:07:48;102035.34;;;11.92;100.00
46303;BME280;32029;51.358;5.628;2024-02-04T05:10:15;102034.63;;;11.82;100.00
46303;BME280;32029;51.358;5.628;2024-02-04T05:12:43;102022.00;;;11.63;100.00
46303;BME280;32029;51.358;5.628;2024-02-04T05:15:10;102014.59;;;11.64;100.00
46303;BME280;32029;51.358;5.628;2024-02-04T05:17:37;102021.69;;;11.74;100.00
46303;BME280;32029;51.358;5.628;2024-02-04T05:20:06;102038.38;;;11.81;100.00
46303;BME280;32029;51.358;5.628;2024-02-04T05:22:35;102033.06;;;11.80;100.00
46303;BME280;32029;51.358;5.628;2024-02-04T05:25:02;102012.06;;;11.70;100.00
46303;BME280;32029;51.358;5.628;2024-02-04T05:27:32;102020.81;;;11.74;100.00
46303;BME280;32029;51.358;5.628;2024-02-04T05:30:01;102020.72;;;11.84;100.00
46303;BME280;32029;51.358;5.628;2024-02-04T05:32:31;102011.34;;;11.68;100.00
46303;BME280;32029;51.358;5.628;2024-02-04T05:34:58;102017.19;;;11.73;100.00
46303;BME280;32029;51.358;5.628;2024-02-04T05:37:29;102009.81;;;11.74;100.00
46303;BME280;32029;51.358;5.628;2024-02-04T05:40:00;102035.75;;;11.63;100.00
46303;BME280;32029;51.358;5.628;2024-02-04T05:42:28;102052.09;;;11.73;100.00
46303;BME280;32029;51.358;5.628;2024-02-04T05:44:56;102017.50;;;11.62;100.00
46303;BME280;32029;51.358;5.628;2024-02-04T05:47:24;102029.25;;;11.72;100.00
46303;BME280;32029;51.358;5.628;2024-02-04T05:49:51;102006.06;;;11.75;100.00
46303;BME280;32029;51.358;5.628;2024-02-04T05:52:19;102016.03;;;11.76;100.00
46303;BME280;32029;51.358;5.628;2024-02-04T05:57:26;102010.16;;;11.71;100.00
46303;BME280;32029;51.358;5.628;2024-02-04T05:59:54;102024.81;;;11.80;100.00
46303;BME280;32029;51.358;5.628;2024-02-04T06:02:23;101984.44;;;11.46;100.00
46303;BME280;32029;51.358;5.628;2024-02-04T06:04:50;101929.69;;;11.10;100.00
46303;BME280;32029;51.358;5.628;2024-02-04T06:07:18;101965.97;;;11.22;100.00
46303;BME280;32029;51.358;5.628;2024-02-04T06:09:47;102011.81;;;11.56;100.00
46303;BME280;32029;51.358;5.628;2024-02-04T06:12:15;102023.38;;;11.67;100.00
46303;BME280;32029;51.358;5.628;2024-02-04T06:14:43;102030.91;;;11.65;100.00
46303;BME280;32029;51.358;5.628;2024-02-04T06:17:16;101999.19;;;11.37;100.00
46303;BME280;32029;51.358;5.628;2024-02-04T06:19:52;101969.28;;;11.34;100.00
46303;BME280;32029;51.358;5.628;2024-02-04T06:22:24;102018.03;;;11.66;100.00
46303;BME280;32029;51.358;5.628;2024-02-04T06:24:54;102035.75;;;11.63;100.00
46303;BME280;32029;51.358;5.628;2024-02-04T06:27:22;102024.41;;;11.66;100.00
46303;BME280;32029;51.358;5.628;2024-02-04T06:29:50;101971.38;;;11.40;100.00
46303;BME280;32029;51.358;5.628;2024-02-04T06:32:17;101987.59;;;11.51;100.00
46303;BME280;32029;51.358;5.628;2024-02-04T06:34:48;102009.63;;;11.67;100.00
46303;BME280;32029;51.358;5.628;2024-02-04T06:37:16;102001.00;;;11.62;100.00
46303;BME280;32029;51.358;5.628;2024-02-04T06:39:44;101969.03;;;11.53;100.00
46303;BME280;32029;51.358;5.628;2024-02-04T06:42:12;101983.53;;;11.71;100.00
46303;BME280;32029;51.358;5.628;2024-02-04T06:44:45;101967.38;;;11.68;100.00
46303;BME280;32029;51.358;5.628;2024-02-04T06:47:13;101972.00;;;11.68;100.00
46303;BME280;32029;51.358;5.628;2024-02-04T06:49:44;101992.47;;;11.73;100.00
46303;BME280;32029;51.358;5.628;2024-02-04T06:52:12;101924.31;;;11.43;100.00
46303;BME280;32029;51.358;5.628;2024-02-04T06:54:39;101989.09;;;11.88;100.00
46303;BME280;32029;51.358;5.628;2024-02-04T06:57:06;101992.47;;;11.73;100.00
46303;BME280;32029;51.358;5.628;2024-02-04T06:59:34;102003.47;;;11.73;100.00
46303;BME280;32029;51.358;5.628;2024-02-04T07:02:02;101968.38;;;11.59;100.00
46303;BME280;32029;51.358;5.628;2024-02-04T07:04:30;101984.00;;;11.59;100.00
46303;BME280;32029;51.358;5.628;2024-02-04T07:07:00;102003.47;;;11.73;100.00
46303;BME280;32029;51.358;5.628;2024-02-04T07:20:37;101951.94;;;11.33;100.00
46303;BME280;32029;51.358;5.628;2024-02-04T07:23:08;102003.81;;;11.70;100.00
46303;BME280;32029;51.358;5.628;2024-02-04T07:25:36;102021.69;;;11.74;100.00
46303;BME280;32029;51.358;5.628;2024-02-04T07:33:20;102012.00;;;11.62;100.00
46303;BME280;32029;51.358;5.628;2024-02-04T07:35:48;102028.88;;;11.67;100.00
46303;BME280;32029;51.358;5.628;2024-02-04T07:38:28;101964.34;;;11.45;100.00
46303;BME280;32029;51.358;5.628;2024-02-04T07:41:00;101938.16;;;11.25;100.00
46303;BME280;32029;51.358;5.628;2024-02-04T07:43:28;102018.25;;;11.72;100.00
46303;BME280;32029;51.358;5.628;2024-02-04T07:45:58;102007.91;;;11.66;100.00
46303;BME280;32029;51.358;5.628;2024-02-04T07:48:30;101975.88;;;11.49;100.00
46303;BME280;32029;51.358;5.628;2024-02-04T07:51:00;102007.25;;;11.72;100.00
46303;BME280;32029;51.358;5.628;2024-02-04T07:56:10;101994.84;;;11.68;100.00
46303;BME280;32029;51.358;5.628;2024-02-04T07:58:40;102004.84;;;11.77;100.00
46303;BME280;32029;51.358;5.628;2024-02-04T08:01:18;102026.84;;;11.77;100.00
46303;BME280;32029;51.358;5.628;2024-02-04T08:03:45;101972.59;;;11.45;100.00
46303;BME280;32029;51.358;5.628;2024-02-04T08:06:14;102021.00;;;11.81;100.00
46303;BME280;32029;51.358;5.628;2024-02-04T08:08:42;101905.66;;;11.12;100.00
46303;BME280;32029;51.358;5.628;2024-02-04T08:11:16;102003.09;;;11.68;100.00
46303;BME280;32029;51.358;5.628;2024-02-04T08:13:43;101998.25;;;11.62;100.00
46303;BME280;32029;51.358;5.628;2024-02-04T08:16:12;102020.63;;;11.67;100.00
46303;BME280;32029;51.358;5.628;2024-02-04T08:18:39;101998.59;;;11.59;100.00
46303;BME280;32029;51.358;5.628;2024-02-04T08:21:06;101996.53;;;11.61;100.00
46303;BME280;32029;51.358;5.628;2024-02-04T08:23:34;101983.47;;;11.55;100.00
46303;BME280;32029;51.358;5.628;2024-02-04T08:26:04;102003.28;;;11.67;100.00
46303;BME280;32029;51.358;5.628;2024-02-04T08:28:31;101997.59;;;11.68;100.00
46303;BME280;32029;51.358;5.628;2024-02-04T08:31:03;101980.75;;;11.63;100.00
46303;BME280;32029;51.358;5.628;2024-02-04T08:33:34;101883.34;;;11.15;100.00
46303;BME280;32029;51.358;5.628;2024-02-04T08:38:39;101962.50;;;11.62;100.00
46303;BME280;32029;51.358;5.628;2024-02-04T08:41:07;101979.94;;;11.79;100.00
46303;BME280;32029;51.358;5.628;2024-02-04T08:43:34;101977.44;;;11.94;100.00
46303;BME280;32029;51.358;5.628;2024-02-04T08:46:05;101968.09;;;11.78;100.00
46303;BME280;32029;51.358;5.628;2024-02-04T08:48:32;101983.59;;;11.88;100.00
46303;BME280;32029;51.358;5.628;2024-02-04T08:54:06;102006.66;;;11.87;100.00
46303;BME280;32029;51.358;5.628;2024-02-04T08:59:21;101979.91;;;11.63;100.00
46303;BME280;32029;51.358;5.628;2024-02-04T09:27:35;101981.63;;;11.64;100.00
46303;BME280;32029;51.358;5.628;2024-02-04T09:35:30;102019.97;;;11.82;100.00
46303;BME280;32029;51.358;5.628;2024-02-04T09:38:04;102007.59;;;11.77;100.00
46303;BME280;32029;51.358;5.628;2024-02-04T09:58:54;101982.69;;;11.79;100.00
46303;BME280;32029;51.358;5.628;2024-02-04T10:01:29;101997.72;;;11.93;100.00
46303;BME280;32029;51.358;5.628;2024-02-04T10:04:00;101970.03;;;11.86;100.00
46303;BME280;32029;51.358;5.628;2024-02-04T10:06:36;101976.38;;;11.87;100.00
46303;BME280;32029;51.358;5.628;2024-02-04T10:09:03;102002.53;;;11.99;100.00
46303;BME280;32029;51.358;5.628;2024-02-04T10:11:36;102000.47;;;12.01;100.00
46303;BME280;32029;51.358;5.628;2024-02-04T10:14:23;102004.13;;;12.01;100.00
46303;BME280;32029;51.358;5.628;2024-02-04T10:17:27;101994.28;;;11.99;100.00
46303;BME280;32029;51.358;5.628;2024-02-04T10:20:11;101996.69;;;11.94;100.00
46303;BME280;32029;51.358;5.628;2024-02-04T10:22:39;102006.34;;;11.98;100.00
46303;BME280;32029;51.358;5.628;2024-02-04T10:25:09;102001.53;;;12.08;100.00
46303;BME280;32029;51.358;5.628;2024-02-04T10:27:41;101986.75;;;12.09;100.00
46303;BME280;32029;51.358;5.628;2024-02-04T10:30:08;102021.16;;;12.13;100.00
46303;BME280;32029;51.358;5.628;2024-02-04T10:32:35;102014.28;;;12.09;100.00
46303;BME280;32029;51.358;5.628;2024-02-04T10:35:02;102007.53;;;12.04;100.00
46303;BME280;32029;51.358;5.628;2024-02-04T10:37:28;101913.19;;;11.52;100.00
46303;BME280;32029;51.358;5.628;2024-02-04T10:39:55;102018.38;;;12.05;100.00
46303;BME280;32029;51.358;5.628;2024-02-04T10:42:24;102029.75;;;12.10;100.00
46303;BME280;32029;51.358;5.628;2024-02-04T10:44:55;102009.09;;;12.06;100.00
46303;BME280;32029;51.358;5.628;2024-02-04T10:47:25;102003.28;;;12.09;100.00
46303;BME280;32029;51.358;5.628;2024-02-04T11:00:25;101982.25;;;12.00;100.00
46303;BME280;32029;51.358;5.628;2024-02-04T11:02:53;102012.22;;;12.19;100.00
46303;BME280;32029;51.358;5.628;2024-02-04T11:05:21;101987.59;;;12.01;100.00
46303;BME280;32029;51.358;5.628;2024-02-04T11:07:52;102032.16;;;12.13;100.00
46303;BME280;32029;51.358;5.628;2024-02-04T11:10:19;101993.59;;;12.05;100.00
46303;BME280;32029;51.358;5.628;2024-02-04T11:12:47;101988.28;;;12.04;100.00
46303;BME280;32029;51.358;5.628;2024-02-04T11:15:17;101993.28;;;12.08;100.00
46303;BME280;32029;51.358;5.628;2024-02-04T11:20:47;101956.63;;;11.99;100.00
46303;BME280;32029;51.358;5.628;2024-02-04T11:26:18;101982.78;;;12.12;100.00
46303;BME280;32029;51.358;5.628;2024-02-04T11:28:46;101994.84;;;12.11;100.00
46303;BME280;32029;51.358;5.628;2024-02-04T11:31:19;101986.25;;;12.14;100.00
46303;BME280;32029;51.358;5.628;2024-02-04T11:33:46;101980.38;;;12.17;100.00
46303;BME280;32029;51.358;5.628;2024-02-04T11:36:14;101958.38;;;12.09;100.00
46303;BME280;32029;51.358;5.628;2024-02-04T11:38:41;101952.72;;;12.18;100.00
46303;BME280;32029;51.358;5.628;2024-02-04T11:41:08;101959.25;;;12.25;100.00
46303;BME280;32029;51.358;5.628;2024-02-04T11:43:37;101973.69;;;12.19;100.00
46303;BME280;32029;51.358;5.628;2024-02-04T11:46:07;101962.34;;;12.14;100.00
46303;BME280;32029;51.358;5.628;2024-02-04T11:48:42;101976.78;;;12.16;100.00
46303;BME280;32029;51.358;5.628;2024-02-04T11:51:09;101961.28;;;12.07;100.00
46303;BME280;32029;51.358;5.628;2024-02-04T11:53:36;101952.84;;;12.09;100.00
46303;BME280;32029;51.358;5.628;2024-02-04T11:56:04;101964.25;;;12.14;100.00
46303;BME280;32029;51.358;5.628;2024-02-04T11:58:32;101968.72;;;12.23;100.00
46303;BME280;32029;51.358;5.628;2024-02-04T12:01:00;101963.38;;;12.21;100.00
46303;BME280;32029;51.358;5.628;2024-02-04T12:03:32;101949.63;;;12.21;100.00
46303;BME280;32029;51.358;5.628;2024-02-04T12:05:59;101950.63;;;12.20;100.00
46303;BME280;32029;51.358;5.628;2024-02-04T12:08:34;101933.13;;;12.13;100.00
46303;BME280;32029;51.358;5.628;2024-02-04T12:11:01;101959.09;;;12.27;100.00
46303;BME280;32029;51.358;5.628;2024-02-04T12:13:28;101961.66;;;12.29;100.00
46303;BME280;32029;51.358;5.628;2024-02-04T12:15:57;101939.63;;;12.29;100.00
46303;BME280;32029;51.358;5.628;2024-02-04T12:18:24;101931.75;;;12.25;100.00
46303;BME280;32029;51.358;5.628;2024-02-04T12:20:51;101939.47;;;12.30;100.00
46303;BME280;32029;51.358;5.628;2024-02-04T12:23:19;101926.25;;;12.17;100.00
46303;BME280;32029;51.358;5.628;2024-02-04T12:25:47;101922.13;;;12.21;100.00
46303;BME280;32029;51.358;5.628;2024-02-04T12:28:14;101934.50;;;12.34;100.00
46303;BME280;32029;51.358;5.628;2024-02-04T12:30:53;101938.97;;;12.35;100.00
46303;BME280;32029;51.358;5.628;2024-02-04T12:33:25;101913.50;;;12.24;100.00
46303;BME280;32029;51.358;5.628;2024-02-04T12:35:52;101922.63;;;12.33;100.00
46303;BME280;32029;51.358;5.628;2024-02-04T12:38:22;101913.84;;;12.21;100.00
46303;BME280;32029;51.358;5.628;2024-02-04T12:40:50;101938.63;;;12.38;100.00
46303;BME280;32029;51.358;5.628;2024-02-04T12:43:17;101923.81;;;12.39;100.00
46303;BME280;32029;51.358;5.628;2024-02-04T12:45:48;101915.03;;;12.35;100.00
46303;BME280;32029;51.358;5.628;2024-02-04T12:48:16;101909.19;;;12.38;100.00
46303;BME280;32029;51.358;5.628;2024-02-04T12:50:44;101901.47;;;12.34;100.00
46303;BME280;32029;51.358;5.628;2024-02-04T12:53:11;101917.47;;;12.38;100.00
46303;BME280;32029;51.358;5.628;2024-02-04T12:55:40;101911.94;;;12.38;100.00
46303;BME280;32029;51.358;5.628;2024-02-04T12:58:13;101888.56;;;12.42;100.00
46303;BME280;32029;51.358;5.628;2024-02-04T13:00:43;101867.72;;;12.40;100.00
46303;BME280;32029;51.358;5.628;2024-02-04T13:03:15;101891.47;;;12.49;100.00
46303;BME280;32029;51.358;5.628;2024-02-04T13:05:42;101867.56;;;12.49;100.00
46303;BME280;32029;51.358;5.628;2024-02-04T13:08:08;101888.88;;;12.56;100.00
46303;BME280;32029;51.358;5.628;2024-02-04T13:10:36;101886.28;;;12.54;100.00
46303;BME280;32029;51.358;5.628;2024-02-04T13:13:08;101887.00;;;12.56;100.00
46303;BME280;32029;51.358;5.628;2024-02-04T13:15:38;101876.34;;;12.53;100.00
46303;BME280;32029;51.358;5.628;2024-02-04T13:18:05;101881.81;;;12.61;100.00
46303;BME280;32029;51.358;5.628;2024-02-04T13:20:32;101891.78;;;12.62;100.00
46303;BME280;32029;51.358;5.628;2024-02-04T13:23:00;101888.88;;;12.64;100.00
46303;BME280;32029;51.358;5.628;2024-02-04T13:25:30;101892.13;;;12.59;100.00
46303;BME280;32029;51.358;5.628;2024-02-04T13:27:57;101895.75;;;12.68;100.00
46303;BME280;32029;51.358;5.628;2024-02-04T13:33:00;101896.19;;;12.96;100.00
46303;BME280;32029;51.358;5.628;2024-02-04T13:35:28;101875.00;;;12.96;100.00
46303;BME280;32029;51.358;5.628;2024-02-04T13:37:55;101887.31;;;13.25;100.00
46303;BME280;32029;51.358;5.628;2024-02-04T13:40:24;101892.78;;;13.33;100.00
46303;BME280;32029;51.358;5.628;2024-02-04T13:42:51;101888.63;;;13.37;100.00
46303;BME280;32029;51.358;5.628;2024-02-04T13:45:17;101889.97;;;13.41;100.00
46303;BME280;32029;51.358;5.628;2024-02-04T13:47:47;101880.91;;;13.33;100.00
46303;BME280;32029;51.358;5.628;2024-02-04T13:50:14;101890.75;;;13.27;100.00
46303;BME280;32029;51.358;5.628;2024-02-04T13:52:41;101896.94;;;13.29;100.00
46303;BME280;32029;51.358;5.628;2024-02-04T13:55:08;101886.09;;;13.28;100.00
46303;BME280;32029;51.358;5.628;2024-02-04T13:57:36;101882.25;;;13.37;100.00
46303;BME280;32029;51.358;5.628;2024-02-04T14:00:03;101873.69;;;13.32;100.00
46303;BME280;32029;51.358;5.628;2024-02-04T14:02:32;101874.53;;;13.32;100.00
46303;BME280;32029;51.358;5.628;2024-02-04T14:04:59;101878.44;;;13.38;100.00
46303;BME280;32029;51.358;5.628;2024-02-04T14:07:26;101882.63;;;13.34;100.00
46303;BME280;32029;51.358;5.628;2024-02-04T14:09:53;101886.91;;;13.36;100.00
46303;BME280;32029;51.358;5.628;2024-02-04T14:12:20;101881.25;;;13.30;100.00
46303;BME280;32029;51.358;5.628;2024-02-04T14:14:47;101875.09;;;13.28;100.00
46303;BME280;32029;51.358;5.628;2024-02-04T14:17:14;101891.63;;;13.28;100.00
46303;BME280;32029;51.358;5.628;2024-02-04T14:19:41;101888.16;;;13.17;100.00
46303;BME280;32029;51.358;5.628;2024-02-04T14:22:08;101880.25;;;13.22;100.00
46303;BME280;32029;51.358;5.628;2024-02-04T14:24:35;101858.59;;;13.11;100.00
46303;BME280;32029;51.358;5.628;2024-02-04T14:27:02;101880.25;;;13.14;100.00
46303;BME280;32029;51.358;5.628;2024-02-04T14:29:29;101867.47;;;13.21;100.00
46303;BME280;32029;51.358;5.628;2024-02-04T14:31:56;101874.38;;;13.17;100.00
46303;BME280;32029;51.358;5.628;2024-02-04T14:34:24;101864.09;;;13.11;100.00
46303;BME280;32029;51.358;5.628;2024-02-04T14:36:51;101862.50;;;13.17;100.00
46303;BME280;32029;51.358;5.628;2024-02-04T14:39:18;101875.44;;;13.16;100.00
46303;BME280;32029;51.358;5.628;2024-02-04T14:41:47;101868.75;;;13.03;100.00